createdAt,value
2023-06-30T00:07:44.643Z,16.5
2023-06-30T00:27:48.478Z,16.3
2023-06-30T00:37:50.881Z,16.2
2023-06-30T00:47:53.425Z,16.1
2023-06-30T00:57:55.352Z,16.1
2023-06-30T01:07:57.117Z,15.8
2023-06-30T01:17:59.517Z,15.5
2023-06-30T01:28:01.889Z,15.2
2023-06-30T02:18:12.436Z,14.7
2023-06-30T02:28:14.167Z,14.7
2023-06-30T02:38:16.312Z,14.7
2023-06-30T03:08:22.902Z,14.6
2023-06-30T03:18:24.932Z,14.6
2023-06-30T03:28:26.887Z,14.5
2023-06-30T03:38:29.248Z,14.6
2023-06-30T03:48:31.453Z,14.5
2023-06-30T03:58:33.486Z,14.5
2023-06-30T04:28:39.549Z,14.3
2023-06-30T04:38:42.230Z,14.3
2023-06-30T04:48:44.359Z,14.3
2023-06-30T04:58:46.019Z,14.3
2023-06-30T05:08:48.688Z,14.3
2023-06-30T05:18:50.594Z,14.4
2023-06-30T05:29:00.299Z,14.4
2023-06-30T05:38:55.112Z,14.5
2023-06-30T05:48:56.874Z,14.8
2023-06-30T06:09:01.423Z,16.6
2023-06-30T06:19:03.879Z,17.1
2023-06-30T06:29:05.598Z,16.5
2023-06-30T06:39:07.998Z,16.1
2023-06-30T06:49:10.189Z,16.2
2023-06-30T07:09:14.019Z,16.5
2023-06-30T07:19:16.609Z,16.8
2023-06-30T07:29:18.714Z,16.8
2023-06-30T07:49:23.184Z,18
2023-06-30T07:59:24.980Z,18.8
2023-06-30T08:19:45.547Z,18
2023-06-30T08:39:32.959Z,18.6
2023-06-30T09:19:42.585Z,18.5
2023-06-30T09:29:45.136Z,19.4
2023-06-30T09:39:47.702Z,20.4
2023-06-30T09:49:49.930Z,19.9
2023-06-30T09:59:51.631Z,20.4
2023-06-30T10:09:53.603Z,20.6
2023-06-30T10:19:56.077Z,21
2023-06-30T10:29:58.169Z,21.7
2023-06-30T10:40:00.717Z,20.7
2023-06-30T10:50:03.080Z,20.2
2023-06-30T11:00:04.996Z,21.1
2023-06-30T11:10:07.644Z,21.1
2023-06-30T11:20:08.385Z,21.7
2023-06-30T11:30:10.111Z,20.4
2023-06-30T11:50:14.611Z,22
2023-06-30T12:00:16.720Z,21.9
2023-06-30T12:10:19.276Z,21.4
2023-06-30T12:20:21.616Z,21.4
2023-06-30T12:30:24.133Z,21.5
2023-06-30T12:40:28.569Z,22
2023-06-30T12:50:28.224Z,22
2023-06-30T13:00:30.012Z,22
2023-06-30T13:10:32.606Z,22.1
2023-06-30T13:20:35.181Z,22.5
2023-06-30T13:30:37.683Z,22.5
2023-06-30T13:40:40.270Z,22.5
2023-06-30T13:50:42.261Z,21.8
2023-06-30T14:10:47.028Z,22.6
2023-06-30T14:20:49.278Z,22.4
2023-06-30T14:40:54.286Z,23.3
2023-06-30T14:50:56.085Z,22.5
2023-06-30T15:00:57.740Z,22.5
2023-06-30T15:10:59.503Z,22.6
2023-06-30T15:21:01.539Z,22.4
2023-06-30T15:31:04.001Z,22.4
2023-06-30T15:41:21.504Z,22.5
2023-06-30T15:51:07.794Z,22.3
2023-06-30T16:11:12.423Z,22.3
2023-06-30T16:21:14.956Z,22.3
2023-06-30T16:31:17.554Z,22.3
2023-06-30T16:41:19.813Z,22.4
2023-06-30T17:11:25.945Z,22.2
2023-06-30T17:31:30.535Z,21.9
2023-06-30T17:51:34.790Z,21.6
2023-06-30T18:01:37.398Z,21.5
2023-06-30T18:11:39.558Z,21.4
2023-06-30T18:31:44.081Z,21.5
2023-06-30T18:41:46.277Z,21.4
2023-06-30T18:51:48.569Z,21.1
2023-06-30T19:01:50.944Z,20.9
2023-06-30T19:11:53.190Z,20.7
2023-06-30T19:31:57.739Z,20.3
2023-06-30T19:41:59.462Z,20.1
2023-06-30T19:52:01.478Z,19.9
2023-06-30T20:12:05.505Z,19.7
2023-06-30T20:32:09.583Z,19.5
2023-06-30T20:42:12.205Z,19.3
2023-06-30T22:12:33.574Z,18.2
2023-06-30T22:22:35.698Z,18.1
2023-06-30T22:42:40.113Z,18
2023-06-30T22:52:42.376Z,18
2023-06-30T23:02:44.861Z,18
2023-06-30T23:12:47.001Z,17.9
2023-06-30T23:22:49.172Z,18
2023-06-30T23:32:51.019Z,18
2023-06-30T23:52:54.793Z,18.1
2023-06-30T23:54:22.188Z,18.1
